Sausalito, CA

10:31 PM PDT on August 28, 2014 (GMT -0700)
Half Moon Bay | Change Station
CLOSE
Current Station
Airport
Location: Half Moon Bay,
Elevation: 66 ft
Nearby Weather Stations

Elev 66 ft 37.51 °N, 122.50 °W | Updated 16 minutes ago

Overcast
Overcast
59 °F
Feels Like 59 °F
N
7
Wind Variable Wind from NNW

Today
High -- | Low -- °F
--% Chance of Precip.
Yesterday
High -- | Low -- °F
Precip. -- in
6:36 AM 7:45 PM
Waxing Crescent, 12% visible
Pressure 30.00 in
Visibility 7.0 miles
Clouds Overcast 600 ft
Dew Point 57 °F
Humidity 94%
Rainfall 0.00 in
Snow Depth Not available.
UV 0 out of 12
Pollen 7.30 out of 12
Air Quality Not available.
Flu Activity Not available.
METAR KHAF 290515Z AUTO 33006KT 7SM OVC006 15/14 A3000 RMK AO2

More Conditions Fewer Conditions

Pressure 30.00 in
Visibility 7.0 miles
Clouds Overcast 600 ft
Dew Point 57 °F
Humidity 94%
Rainfall 0.00 in
Snow Depth Not available.
UV 0 out of 12
Pollen 7.30 out of 12
Air Quality Not available.
Flu Activity Not available.
METAR KHAF 290515Z AUTO 33006KT 7SM OVC006 15/14 A3000 RMK AO2

More Conditions Fewer Conditions

10-Day Weather Forecast

Almanac

Astronomy

Aug. 28, 2014 Rise Set
Actual Time 6:36 AM PDT 7:45 PM PDT
Civil Twilight 6:09 AM PDT 8:12 PM PDT
Nautical Twilight 5:37 AM PDT 8:44 PM PDT
Astronomical Twilight 5:03 AM PDT 9:17 PM PDT
Moon 9:30 AM PDT (8/28) 9:16 PM PDT (8/28)
Length of Visible Light 14h 02m
Length of Day
13h 08m
Tomorrow will be 2m 19s shorter.
Waxing Crescent, 12% of the Moon is Illuminated
Aug 29
Waxing Crescent
Sep 2
First Quarter
Sep 8
Full
Sep 15
Last Quarter
Sep 24
New

Yesterday's Extremes

State Highs State Lows

Community

WunderPhotos

Upload Photos

1,748,196 photos uploaded!

Nearby

Snow Depth

Station Depth Elevation
Echo Peak 0 in 7800 ft
Blue Lakes 0 in 8000 ft
Forestdale Creek 0 in 8029 ft
Rubicon #2 0 in 7500 ft
Fallen Leaf 0 in 6300 ft

Earthquake Activity

City Distance Mag. Time & Date
Napa, California 27 miles 2.6 11:57 AM PDT
2014-08-27
The Geysers, California 67 miles 2.6 7:42 AM PDT
2014-08-27
Soledad, California 120 miles 2.6 12:15 PM PDT
2014-08-26
Napa, California 27 miles 2.5 10:56 AM PDT
2014-08-26
Minimum magnitude displayed is 2.5.

Coastal Water Temperatures

Place Temperature
San Francisco, CA 64.9 °F
Richmond, CA 66.9 °F
Port Chicago, CA 70.0 °F

Nearby Weather Stations